Terminal Aerodrome Forecast
Issued by NWS New Orleans/Baton Rouge, LA

Home | Current Version | Previous Version | Text Only | Print | Product List | Glossary On
Versions: 1 2 3 4 5 6 7 8 9 10 11 12 13 14 15 16 17 18 19 20 21
000
FTUS44 KLIX 291740
TAFNEW
TAF
KNEW 291740Z 2918/3018 35009KT P6SM FEW050 SCT250
      TEMPO 2921/2924 2SM TSRA BKN030CB
     FM300000 VRB06KT P6SM SCT060 BKN250
     FM300300 27009KT P6SM SCT050 SCT250
     FM301300 31009KT P6SM FEW100 BKN200=

USA.gov is the U.S. government's official web portal to all federal, state and local government web resources and services.